createdAt,value
2018-01-30T00:00:29.314Z,0
2018-01-30T00:01:39.353Z,0
2018-01-30T00:02:49.507Z,0
2018-01-30T00:04:00.628Z,0
2018-01-30T00:05:10.773Z,0
2018-01-30T00:06:20.950Z,0
2018-01-30T00:07:30.857Z,0
2018-01-30T00:08:40.971Z,0
2018-01-30T00:09:50.871Z,0
2018-01-30T00:11:01.020Z,0
2018-01-30T00:12:11.133Z,0
2018-01-30T00:13:21.290Z,0
2018-01-30T00:14:31.443Z,0
2018-01-30T00:15:41.563Z,0
2018-01-30T00:16:51.689Z,0
2018-01-30T00:18:01.801Z,0
2018-01-30T00:19:11.943Z,0
2018-01-30T00:20:22.140Z,0
2018-01-30T00:21:32.308Z,0
2018-01-30T00:22:42.502Z,0
2018-01-30T00:23:52.673Z,0
2018-01-30T00:25:02.798Z,0
2018-01-30T00:26:12.957Z,0
2018-01-30T00:27:23.088Z,0
2018-01-30T00:28:33.207Z,0
2018-01-30T00:29:43.594Z,0
2018-01-30T00:30:53.740Z,0
2018-01-30T00:32:04.027Z,0
2018-01-30T00:33:14.272Z,0
2018-01-30T00:34:24.136Z,0
2018-01-30T00:35:34.016Z,0
2018-01-30T00:36:44.175Z,0
2018-01-30T00:37:54.306Z,0
2018-01-30T00:39:04.452Z,0
2018-01-30T00:40:14.584Z,0
2018-01-30T00:41:24.730Z,0
2018-01-30T00:42:34.594Z,0
2018-01-30T00:43:44.748Z,0
2018-01-30T00:44:54.886Z,0
2018-01-30T00:46:05.231Z,0
2018-01-30T00:47:15.144Z,0
2018-01-30T00:48:25.302Z,0
2018-01-30T00:49:35.073Z,0
2018-01-30T00:50:44.965Z,0
2018-01-30T00:51:55.231Z,0
2018-01-30T00:53:05.369Z,0
2018-01-30T00:54:15.492Z,0
2018-01-30T00:55:25.611Z,0
2018-01-30T00:56:35.731Z,0
2018-01-30T00:57:45.998Z,0
2018-01-30T00:58:56.169Z,0
2018-01-30T01:00:06.393Z,0
2018-01-30T01:01:16.619Z,0
2018-01-30T01:02:26.780Z,0
2018-01-30T01:03:36.910Z,0
2018-01-30T01:04:47.046Z,0
2018-01-30T01:05:57.156Z,0
2018-01-30T01:07:07.340Z,0
2018-01-30T01:08:17.463Z,0
2018-01-30T01:09:28.606Z,0
2018-01-30T01:10:38.807Z,0
2018-01-30T01:11:48.985Z,0
2018-01-30T01:12:59.134Z,0
2018-01-30T01:14:09.061Z,0
2018-01-30T01:15:19.250Z,0
2018-01-30T01:16:29.542Z,0
2018-01-30T01:17:39.717Z,0
2018-01-30T01:18:49.983Z,0
2018-01-30T01:20:00.194Z,0
2018-01-30T01:21:10.378Z,0
2018-01-30T01:22:20.624Z,0
2018-01-30T01:23:30.757Z,0
2018-01-30T01:24:41.026Z,0
2018-01-30T01:25:51.172Z,0
2018-01-30T01:27:01.569Z,0
2018-01-30T01:28:11.736Z,0
2018-01-30T01:29:21.940Z,0
2018-01-30T01:30:32.072Z,0
2018-01-30T01:31:42.326Z,0
2018-01-30T01:32:52.596Z,0
2018-01-30T01:34:02.783Z,0
2018-01-30T01:35:12.940Z,0
2018-01-30T01:36:23.091Z,0
2018-01-30T01:37:33.028Z,0
2018-01-30T01:38:43.231Z,0
2018-01-30T01:39:53.433Z,0
2018-01-30T01:41:03.619Z,0
2018-01-30T01:42:13.792Z,0
2018-01-30T01:43:23.912Z,0
2018-01-30T01:44:34.040Z,0
2018-01-30T01:45:44.152Z,0
2018-01-30T01:46:54.322Z,0
2018-01-30T01:48:04.509Z,0
2018-01-30T01:49:14.398Z,0
2018-01-30T01:50:24.526Z,0
2018-01-30T01:51:34.278Z,0
2018-01-30T01:52:44.397Z,0
2018-01-30T01:53:54.607Z,0
2018-01-30T01:55:04.760Z,0
2018-01-30T01:56:15.127Z,0
2018-01-30T01:57:24.979Z,0
2018-01-30T01:58:35.094Z,0
2018-01-30T01:59:45.234Z,0
2018-01-30T02:00:55.364Z,0
2018-01-30T02:02:05.593Z,0
2018-01-30T02:03:15.806Z,0
2018-01-30T02:04:25.908Z,0
2018-01-30T02:05:36.017Z,0
2018-01-30T02:06:46.234Z,0
2018-01-30T02:07:56.370Z,0
2018-01-30T02:09:06.549Z,0
2018-01-30T02:10:16.835Z,0
2018-01-30T02:11:26.978Z,0
2018-01-30T02:12:37.136Z,0
2018-01-30T02:13:47.310Z,0
2018-01-30T02:14:57.431Z,0
2018-01-30T02:16:07.522Z,0
2018-01-30T02:17:17.664Z,0
2018-01-30T02:18:27.818Z,0
2018-01-30T02:19:37.954Z,0
2018-01-30T02:20:48.085Z,0
2018-01-30T02:21:58.203Z,0
2018-01-30T02:23:08.324Z,0
2018-01-30T02:24:18.489Z,0
2018-01-30T02:25:28.392Z,0
2018-01-30T02:26:38.624Z,0
2018-01-30T02:27:48.827Z,0
2018-01-30T02:28:58.941Z,0
2018-01-30T02:30:09.082Z,0
2018-01-30T02:31:19.325Z,0
2018-01-30T02:32:29.088Z,0
2018-01-30T02:33:39.241Z,0
2018-01-30T02:34:49.436Z,0
2018-01-30T02:35:59.325Z,0
2018-01-30T02:37:09.495Z,0
2018-01-30T02:38:19.627Z,0
2018-01-30T02:39:29.766Z,0
2018-01-30T02:40:39.885Z,0
2018-01-30T02:41:50.016Z,0
2018-01-30T02:43:00.138Z,0
2018-01-30T02:44:10.364Z,0
2018-01-30T02:45:20.504Z,0
2018-01-30T02:46:30.425Z,0
2018-01-30T02:47:40.609Z,0
2018-01-30T02:48:50.799Z,0
2018-01-30T02:50:00.936Z,0
2018-01-30T02:51:11.172Z,0
2018-01-30T02:52:21.357Z,0
2018-01-30T02:53:31.574Z,0
2018-01-30T02:54:41.745Z,0
2018-01-30T02:55:51.892Z,0
2018-01-30T02:57:02.020Z,0
2018-01-30T02:58:12.158Z,0
2018-01-30T02:59:22.321Z,0
2018-01-30T03:00:32.519Z,0
2018-01-30T03:01:42.637Z,0
2018-01-30T03:02:52.959Z,0
2018-01-30T03:04:03.138Z,0
2018-01-30T03:05:13.004Z,0
2018-01-30T03:06:23.136Z,0
2018-01-30T03:07:33.268Z,0
2018-01-30T03:08:43.470Z,0
2018-01-30T03:09:53.581Z,0
2018-01-30T03:11:03.741Z,0
2018-01-30T03:12:13.863Z,0
2018-01-30T03:13:23.968Z,0
2018-01-30T03:14:34.161Z,0
2018-01-30T03:15:44.436Z,0
2018-01-30T03:16:54.660Z,0
2018-01-30T03:18:04.278Z,0
2018-01-30T03:19:14.384Z,0
2018-01-30T03:20:24.801Z,0
2018-01-30T03:21:34.656Z,0
2018-01-30T03:22:44.769Z,0
2018-01-30T03:23:54.909Z,0
2018-01-30T03:25:05.077Z,0
2018-01-30T03:26:15.215Z,0
2018-01-30T03:27:25.323Z,0
2018-01-30T03:28:35.423Z,0
2018-01-30T03:29:45.580Z,0
2018-01-30T03:30:55.770Z,0
2018-01-30T03:32:05.975Z,0
2018-01-30T03:33:16.142Z,0
2018-01-30T03:34:26.252Z,0
2018-01-30T03:35:36.354Z,0
2018-01-30T03:36:46.456Z,0
2018-01-30T03:37:56.243Z,0
2018-01-30T03:39:06.371Z,0
2018-01-30T03:40:16.629Z,0
2018-01-30T03:41:26.798Z,0
2018-01-30T03:42:36.942Z,0
2018-01-30T03:43:47.049Z,0
2018-01-30T03:44:57.144Z,0
2018-01-30T03:46:06.911Z,0
2018-01-30T03:47:17.023Z,0
2018-01-30T03:48:27.172Z,0
2018-01-30T03:49:37.355Z,0
2018-01-30T03:50:47.530Z,0
2018-01-30T03:51:57.727Z,0
2018-01-30T03:53:07.938Z,0
2018-01-30T03:54:17.827Z,0
2018-01-30T03:55:28.022Z,0
2018-01-30T03:56:38.231Z,0
2018-01-30T03:57:48.498Z,0
2018-01-30T03:58:58.609Z,0
2018-01-30T04:00:08.916Z,0
2018-01-30T04:01:18.826Z,0
2018-01-30T04:02:28.957Z,0
2018-01-30T04:03:39.106Z,0
2018-01-30T04:04:49.251Z,0
2018-01-30T04:05:59.499Z,0
2018-01-30T04:07:09.685Z,0
2018-01-30T04:08:19.862Z,0
2018-01-30T04:09:30.093Z,0
2018-01-30T04:10:40.222Z,0
2018-01-30T04:11:50.085Z,0
2018-01-30T04:13:00.297Z,0
2018-01-30T04:14:10.493Z,0
2018-01-30T04:15:20.652Z,0
2018-01-30T04:16:30.821Z,0
2018-01-30T04:17:40.931Z,0
2018-01-30T04:18:51.036Z,0
2018-01-30T04:20:01.177Z,0
2018-01-30T04:21:11.411Z,0
2018-01-30T04:22:21.536Z,0
2018-01-30T04:23:31.749Z,0
2018-01-30T04:24:41.856Z,0
2018-01-30T04:25:51.964Z,0
2018-01-30T04:27:02.103Z,0
2018-01-30T04:28:12.318Z,0
2018-01-30T04:29:22.521Z,0
2018-01-30T04:30:32.660Z,0
2018-01-30T04:31:42.830Z,0
2018-01-30T04:32:53.173Z,0
2018-01-30T04:34:03.374Z,0
2018-01-30T04:35:13.570Z,0
2018-01-30T04:36:23.759Z,0
2018-01-30T04:37:34.116Z,0
2018-01-30T04:38:44.032Z,0
2018-01-30T04:39:54.138Z,0
2018-01-30T04:41:04.268Z,0
2018-01-30T04:42:14.397Z,0
2018-01-30T04:43:24.510Z,0
2018-01-30T04:44:34.655Z,0
2018-01-30T04:45:44.781Z,0
2018-01-30T04:46:54.907Z,0
2018-01-30T04:48:05.027Z,0
2018-01-30T04:49:15.263Z,0
2018-01-30T04:50:25.537Z,0
2018-01-30T04:51:35.706Z,0
2018-01-30T04:52:45.865Z,0
2018-01-30T04:53:55.636Z,0
2018-01-30T04:55:05.612Z,0
2018-01-30T04:56:16.714Z,0
2018-01-30T04:57:26.846Z,0
2018-01-30T04:58:37.007Z,0
2018-01-30T04:59:47.232Z,0
2018-01-30T05:00:57.484Z,0
2018-01-30T05:02:07.702Z,0
2018-01-30T05:03:17.607Z,0
2018-01-30T05:04:27.722Z,0
2018-01-30T05:05:37.862Z,0
2018-01-30T05:06:47.980Z,0
2018-01-30T05:07:58.096Z,0
2018-01-30T05:09:08.220Z,0
2018-01-30T05:10:18.099Z,0
2018-01-30T05:11:28.203Z,0
2018-01-30T05:12:38.380Z,0
2018-01-30T05:13:48.510Z,0
2018-01-30T05:14:58.773Z,0
2018-01-30T05:16:08.629Z,0
2018-01-30T05:17:18.740Z,0
2018-01-30T05:18:28.861Z,0
2018-01-30T05:19:39.011Z,0
2018-01-30T05:20:49.275Z,0
2018-01-30T05:21:59.562Z,0
2018-01-30T05:23:09.698Z,0
2018-01-30T05:24:19.910Z,0
2018-01-30T05:25:30.095Z,0
2018-01-30T05:26:40.543Z,0
2018-01-30T05:27:50.656Z,0
2018-01-30T05:29:00.807Z,0
2018-01-30T05:30:11.035Z,0
2018-01-30T05:31:21.295Z,0
2018-01-30T05:32:31.515Z,0
2018-01-30T05:33:41.716Z,0
2018-01-30T05:34:51.963Z,0
2018-01-30T05:36:02.337Z,0
2018-01-30T05:37:12.483Z,0
2018-01-30T05:38:22.272Z,0
2018-01-30T05:39:32.362Z,0
2018-01-30T05:40:42.470Z,0
2018-01-30T05:41:52.620Z,0
2018-01-30T05:43:02.803Z,0
2018-01-30T05:44:12.953Z,0
2018-01-30T05:45:23.092Z,0
2018-01-30T05:46:33.240Z,0
2018-01-30T05:47:43.418Z,0
2018-01-30T05:48:53.580Z,0
2018-01-30T05:50:03.457Z,0
2018-01-30T05:51:13.619Z,0
2018-01-30T05:52:23.794Z,0
2018-01-30T05:53:33.941Z,0
2018-01-30T05:54:44.087Z,0
2018-01-30T05:55:54.237Z,0
2018-01-30T05:57:04.359Z,0
2018-01-30T05:58:14.240Z,0
2018-01-30T05:59:24.386Z,0
2018-01-30T06:00:34.497Z,0
2018-01-30T06:01:44.603Z,0
2018-01-30T06:02:54.698Z,0
2018-01-30T06:04:04.815Z,0
2018-01-30T06:05:15.016Z,0
2018-01-30T06:06:25.187Z,0
2018-01-30T06:07:35.322Z,0
2018-01-30T06:08:45.456Z,0
2018-01-30T06:09:55.584Z,0
2018-01-30T06:11:05.700Z,0
2018-01-30T06:12:15.843Z,0
2018-01-30T06:13:25.608Z,0
2018-01-30T06:14:35.742Z,0
2018-01-30T06:15:45.850Z,0
2018-01-30T06:16:56.037Z,0
2018-01-30T06:18:07.328Z,0
2018-01-30T06:19:17.455Z,0
2018-01-30T06:20:27.612Z,0
2018-01-30T06:21:37.725Z,4
2018-01-30T06:22:47.852Z,0
2018-01-30T06:23:57.996Z,4
2018-01-30T06:25:08.180Z,0
2018-01-30T06:26:18.279Z,4
2018-01-30T06:27:28.435Z,4
2018-01-30T06:28:38.597Z,4
2018-01-30T06:29:48.703Z,8
2018-01-30T06:30:58.833Z,4
2018-01-30T06:32:08.764Z,8
2018-01-30T06:33:18.868Z,12
2018-01-30T06:34:28.994Z,12
2018-01-30T06:35:39.126Z,16
2018-01-30T06:36:49.243Z,20
2018-01-30T06:37:59.349Z,24
2018-01-30T06:39:09.456Z,32
2018-01-30T06:40:19.308Z,32
2018-01-30T06:41:29.410Z,44
2018-01-30T06:42:39.589Z,48
2018-01-30T06:43:49.727Z,56
2018-01-30T06:44:59.862Z,64
2018-01-30T06:46:09.977Z,76
2018-01-30T06:47:19.845Z,88
2018-01-30T06:48:29.712Z,100
2018-01-30T06:49:39.857Z,120
2018-01-30T06:50:50.257Z,132
2018-01-30T06:52:00.378Z,152
2018-01-30T06:53:10.233Z,172
2018-01-30T06:54:20.397Z,196
2018-01-30T06:55:30.245Z,212
2018-01-30T06:56:40.378Z,236
2018-01-30T06:57:50.511Z,256
2018-01-30T06:59:00.676Z,288
2018-01-30T07:00:10.907Z,324
2018-01-30T07:01:21.112Z,344
2018-01-30T07:02:31.263Z,348
2018-01-30T07:03:41.460Z,356
2018-01-30T07:04:51.750Z,408
2018-01-30T07:06:01.574Z,372
2018-01-30T07:07:11.701Z,292
2018-01-30T07:08:21.830Z,272
2018-01-30T07:09:31.735Z,276
2018-01-30T07:10:41.890Z,308
2018-01-30T07:11:52.064Z,288
2018-01-30T07:13:02.289Z,352
2018-01-30T07:14:12.482Z,384
2018-01-30T07:15:22.599Z,388
2018-01-30T07:16:32.743Z,432
2018-01-30T07:17:42.864Z,484
2018-01-30T07:18:53.027Z,464
2018-01-30T07:20:03.222Z,516
2018-01-30T07:21:13.425Z,572
2018-01-30T07:22:23.656Z,652
2018-01-30T07:23:33.856Z,656
2018-01-30T07:24:44.020Z,728
2018-01-30T07:25:54.156Z,668
2018-01-30T07:27:04.284Z,744
2018-01-30T07:28:14.440Z,732
2018-01-30T07:29:24.561Z,696
2018-01-30T07:30:34.710Z,936
2018-01-30T07:31:44.831Z,968
2018-01-30T07:32:54.979Z,1024
2018-01-30T07:34:05.125Z,1016
2018-01-30T07:35:15.242Z,860
2018-01-30T07:36:25.446Z,1148
2018-01-30T07:37:35.604Z,1152
2018-01-30T07:38:45.725Z,1348
2018-01-30T07:39:55.703Z,1224
2018-01-30T07:41:05.821Z,1200
2018-01-30T07:42:15.946Z,1364
2018-01-30T07:43:26.174Z,1864
2018-01-30T07:44:36.074Z,1932
2018-01-30T07:45:46.240Z,2032
2018-01-30T07:46:56.432Z,2656
2018-01-30T07:48:06.580Z,2800
2018-01-30T07:49:16.770Z,2948
2018-01-30T07:50:26.982Z,2768
2018-01-30T07:51:37.133Z,2508
2018-01-30T07:52:47.265Z,2476
2018-01-30T07:53:57.393Z,2396
2018-01-30T07:55:07.523Z,2640
2018-01-30T07:56:17.643Z,2820
2018-01-30T07:57:27.815Z,2508
2018-01-30T07:58:37.669Z,2164
2018-01-30T07:59:47.550Z,2368
2018-01-30T08:00:57.772Z,2140
2018-01-30T08:02:07.878Z,1984
2018-01-30T08:03:18.007Z,1880
2018-01-30T08:04:28.001Z,2192
2018-01-30T08:05:38.140Z,2220
2018-01-30T08:06:48.250Z,2276
2018-01-30T08:07:58.121Z,2540
2018-01-30T08:09:08.266Z,2448
2018-01-30T08:10:24.656Z,2572
2018-01-30T08:11:34.861Z,2716
2018-01-30T08:12:45.026Z,2808
2018-01-30T08:13:55.174Z,3252
2018-01-30T08:15:05.279Z,2916
2018-01-30T08:16:15.464Z,2900
2018-01-30T08:17:25.695Z,3720
2018-01-30T08:18:35.829Z,4424
2018-01-30T08:19:45.957Z,10844
2018-01-30T08:20:56.098Z,9364
2018-01-30T08:22:06.291Z,11572
2018-01-30T08:23:16.420Z,5160
2018-01-30T08:24:26.357Z,3700
2018-01-30T08:25:36.595Z,5472
2018-01-30T08:26:46.864Z,5516
2018-01-30T08:27:57.081Z,5740
2018-01-30T08:29:07.296Z,4052
2018-01-30T08:30:17.510Z,3900
2018-01-30T08:31:27.712Z,4484
2018-01-30T08:32:37.985Z,6856
2018-01-30T08:33:48.116Z,15712
2018-01-30T08:34:58.283Z,17280
2018-01-30T08:36:08.480Z,17408
2018-01-30T08:37:18.621Z,16576
2018-01-30T08:38:28.774Z,17632
2018-01-30T08:39:38.907Z,18304
2018-01-30T08:40:49.061Z,18560
2018-01-30T08:41:59.231Z,19296
2018-01-30T08:43:09.141Z,18784
2018-01-30T08:44:19.285Z,18592
2018-01-30T08:45:29.460Z,18944
2018-01-30T08:46:39.658Z,18720
2018-01-30T08:47:49.875Z,19136
2018-01-30T08:49:00.123Z,19840
2018-01-30T08:50:10.280Z,20384
2018-01-30T08:51:20.513Z,21632
2018-01-30T08:52:30.737Z,21472
2018-01-30T08:53:41.074Z,21376
2018-01-30T08:54:51.334Z,23296
2018-01-30T08:56:01.269Z,23072
2018-01-30T08:57:11.446Z,23104
2018-01-30T08:58:21.583Z,7540
2018-01-30T08:59:31.796Z,23872
2018-01-30T09:00:41.945Z,6240
2018-01-30T09:01:52.128Z,11528
2018-01-30T09:03:02.265Z,6500
2018-01-30T09:04:12.501Z,6000
2018-01-30T09:05:22.662Z,5188
2018-01-30T09:06:33.790Z,7528
2018-01-30T09:07:43.963Z,23104
2018-01-30T09:08:54.240Z,28416
2018-01-30T09:10:04.416Z,29984
2018-01-30T09:11:14.775Z,21504
2018-01-30T09:12:24.955Z,9764
2018-01-30T09:13:35.126Z,18080
2018-01-30T09:14:45.306Z,22848
2018-01-30T09:15:55.457Z,10236
2018-01-30T09:17:05.573Z,8904
2018-01-30T09:18:15.787Z,9780
2018-01-30T09:19:25.893Z,35488
2018-01-30T09:20:36.108Z,32800
2018-01-30T09:21:46.252Z,32480
2018-01-30T09:22:56.469Z,28608
2018-01-30T09:24:06.727Z,31072
2018-01-30T09:25:17.027Z,8340
2018-01-30T09:26:27.231Z,29888
2018-01-30T09:27:37.397Z,30240
2018-01-30T09:28:47.611Z,33216
2018-01-30T09:29:57.828Z,33504
2018-01-30T09:31:08.032Z,37312
2018-01-30T09:33:34.097Z,25280
2018-01-30T09:34:44.287Z,7804
2018-01-30T09:35:54.450Z,10136
2018-01-30T09:37:04.589Z,20960
2018-01-30T09:38:14.739Z,14720
2018-01-30T09:39:24.913Z,14816
2018-01-30T09:40:35.120Z,36000
2018-01-30T09:41:45.267Z,24096
2018-01-30T09:42:55.429Z,33312
2018-01-30T09:44:05.688Z,15168
2018-01-30T09:45:15.819Z,32960
2018-01-30T09:46:25.957Z,32288
2018-01-30T09:47:36.099Z,32704
2018-01-30T09:48:45.985Z,33632
2018-01-30T09:49:56.140Z,33568
2018-01-30T09:51:06.326Z,32352
2018-01-30T09:52:16.464Z,16832
2018-01-30T09:53:26.612Z,21888
2018-01-30T09:54:36.788Z,14816
2018-01-30T09:55:46.943Z,15520
2018-01-30T09:56:57.093Z,8972
2018-01-30T09:58:07.266Z,19200
2018-01-30T09:59:17.030Z,12504
2018-01-30T10:00:27.211Z,15712
2018-01-30T10:01:37.363Z,40448
2018-01-30T10:02:47.545Z,33632
2018-01-30T10:03:57.771Z,14720
2018-01-30T10:05:07.650Z,38272
2018-01-30T10:06:17.804Z,41312
2018-01-30T10:07:28.006Z,26688
2018-01-30T10:08:38.167Z,43488
2018-01-30T10:09:48.308Z,40704
2018-01-30T10:10:58.466Z,28128
2018-01-30T10:12:08.646Z,41856
2018-01-30T10:13:18.807Z,28224
2018-01-30T10:14:28.666Z,37152
2018-01-30T10:15:38.855Z,13976
2018-01-30T10:16:49.087Z,16544
2018-01-30T10:18:00.358Z,13124
2018-01-30T10:19:10.543Z,25536
2018-01-30T10:20:20.697Z,37920
2018-01-30T10:21:30.705Z,10200
2018-01-30T10:22:40.842Z,18944
2018-01-30T10:23:51.048Z,42400
2018-01-30T10:25:01.229Z,20288
2018-01-30T10:26:11.516Z,33440
2018-01-30T10:27:21.681Z,46240
2018-01-30T10:28:31.867Z,49856
2018-01-30T10:29:42.108Z,45600
2018-01-30T10:30:52.356Z,45248
2018-01-30T10:32:02.574Z,44768
2018-01-30T10:33:12.839Z,47648
2018-01-30T10:34:23.004Z,47872
2018-01-30T10:35:33.017Z,48544
2018-01-30T10:36:43.165Z,45760
2018-01-30T10:37:53.327Z,44064
2018-01-30T10:39:03.503Z,50848
2018-01-30T10:40:13.446Z,45696
2018-01-30T10:41:23.585Z,42976
2018-01-30T10:42:33.770Z,50144
2018-01-30T10:43:43.910Z,37632
2018-01-30T10:44:54.069Z,32800
2018-01-30T10:46:04.228Z,37440
2018-01-30T10:47:14.359Z,35232
2018-01-30T10:48:24.605Z,41664
2018-01-30T10:49:34.272Z,41696
2018-01-30T10:50:44.623Z,41568
2018-01-30T10:51:54.796Z,41952
2018-01-30T10:53:05.053Z,41312
2018-01-30T10:54:15.219Z,45376
2018-01-30T10:55:24.989Z,45344
2018-01-30T10:56:34.990Z,34144
2018-01-30T10:57:45.156Z,43680
2018-01-30T10:58:55.372Z,42624
2018-01-30T11:00:05.278Z,42464
2018-01-30T11:01:15.438Z,45536
2018-01-30T11:02:25.604Z,8708
2018-01-30T11:03:35.850Z,6356
2018-01-30T11:04:46.004Z,6472
2018-01-30T11:05:56.183Z,8248
2018-01-30T11:07:06.338Z,10176
2018-01-30T11:08:16.529Z,10068
2018-01-30T11:09:26.468Z,8384
2018-01-30T11:10:36.682Z,7920
2018-01-30T11:11:46.826Z,6912
2018-01-30T11:12:56.995Z,7524
2018-01-30T11:14:07.181Z,8236
2018-01-30T11:15:17.322Z,8804
2018-01-30T11:16:27.492Z,11352
2018-01-30T11:17:37.844Z,12176
2018-01-30T11:18:48.101Z,11668
2018-01-30T11:19:58.336Z,38528
2018-01-30T11:21:08.486Z,9392
2018-01-30T11:22:18.659Z,6956
2018-01-30T11:23:28.902Z,7008
2018-01-30T11:24:39.067Z,4920
2018-01-30T11:25:49.253Z,3908
2018-01-30T11:26:59.379Z,2944
2018-01-30T11:28:09.535Z,3204
2018-01-30T11:29:19.690Z,3108
2018-01-30T11:30:30.875Z,2504
2018-01-30T11:31:41.057Z,2780
2018-01-30T11:32:51.188Z,3368
2018-01-30T11:34:01.463Z,4864
2018-01-30T11:35:11.643Z,9164
2018-01-30T11:36:21.818Z,7928
2018-01-30T11:37:32.090Z,4040
2018-01-30T11:38:42.335Z,5524
2018-01-30T11:39:52.482Z,5856
2018-01-30T11:41:02.705Z,5316
2018-01-30T11:42:12.927Z,5348
2018-01-30T11:43:23.173Z,4256
2018-01-30T11:44:33.532Z,4568
2018-01-30T11:45:43.779Z,8176
2018-01-30T11:46:53.920Z,34432
2018-01-30T11:48:04.073Z,33472
2018-01-30T11:49:13.864Z,31168
2018-01-30T11:50:24.122Z,9312
2018-01-30T11:51:34.292Z,5536
2018-01-30T11:52:44.485Z,5840
2018-01-30T11:53:54.424Z,7732
2018-01-30T11:55:04.553Z,17504
2018-01-30T11:56:14.749Z,17664
2018-01-30T11:57:24.905Z,9684
2018-01-30T11:58:35.172Z,30560
2018-01-30T11:59:45.384Z,26592
2018-01-30T12:00:55.340Z,33120
2018-01-30T12:02:05.495Z,15904
2018-01-30T12:03:15.651Z,32608
2018-01-30T12:04:25.798Z,31648
2018-01-30T12:05:35.690Z,29792
2018-01-30T12:06:46.803Z,35840
2018-01-30T12:07:56.692Z,32608
2018-01-30T12:09:06.844Z,33856
2018-01-30T12:10:17.016Z,29568
2018-01-30T12:11:27.210Z,27296
2018-01-30T12:12:37.354Z,15648
2018-01-30T12:13:47.472Z,26240
2018-01-30T12:14:57.733Z,31168
2018-01-30T12:16:07.618Z,28192
2018-01-30T12:17:17.771Z,22848
2018-01-30T12:18:27.911Z,22112
2018-01-30T12:19:38.140Z,7880
2018-01-30T12:20:48.377Z,5768
2018-01-30T12:21:58.528Z,4848
2018-01-30T12:23:08.081Z,3560
2018-01-30T12:24:18.224Z,3428
2018-01-30T12:25:28.390Z,4304
2018-01-30T12:26:38.527Z,6056
2018-01-30T12:27:48.404Z,9860
2018-01-30T12:28:58.538Z,19968
2018-01-30T12:30:08.697Z,23392
2018-01-30T12:31:18.849Z,21920
2018-01-30T12:32:29.100Z,20896
2018-01-30T12:33:39.293Z,16608
2018-01-30T12:34:49.446Z,11760
2018-01-30T12:35:59.574Z,10056
2018-01-30T12:37:09.735Z,9564
2018-01-30T12:38:19.857Z,11712
2018-01-30T12:39:30.001Z,11888
2018-01-30T12:40:40.184Z,18016
2018-01-30T12:41:50.406Z,20000
2018-01-30T12:43:00.633Z,24448
2018-01-30T12:44:10.842Z,27200
2018-01-30T12:45:21.114Z,28448
2018-01-30T12:46:31.322Z,26880
2018-01-30T12:47:41.503Z,25376
2018-01-30T12:48:51.868Z,26688
2018-01-30T12:50:02.058Z,22144
2018-01-30T12:51:12.252Z,17408
2018-01-30T12:52:22.472Z,16608
2018-01-30T12:53:32.627Z,15584
2018-01-30T12:54:42.851Z,15968
2018-01-30T12:55:53.162Z,16640
2018-01-30T12:57:03.342Z,16960
2018-01-30T12:58:13.526Z,16576
2018-01-30T12:59:23.777Z,18592
2018-01-30T13:00:33.942Z,19712
2018-01-30T13:01:44.348Z,20800
2018-01-30T13:02:54.519Z,23232
2018-01-30T13:04:04.727Z,19520
2018-01-30T13:05:14.985Z,18688
2018-01-30T13:06:24.852Z,22048
2018-01-30T13:07:35.002Z,19136
2018-01-30T13:08:44.977Z,18176
2018-01-30T13:09:55.164Z,19008
2018-01-30T13:11:05.367Z,18336
2018-01-30T13:12:15.527Z,17408
2018-01-30T13:13:25.701Z,16832
2018-01-30T13:14:35.849Z,18016
2018-01-30T13:15:46.007Z,17824
2018-01-30T13:16:56.149Z,18784
2018-01-30T13:18:06.354Z,18560
2018-01-30T13:19:16.591Z,16032
2018-01-30T13:20:26.755Z,12920
2018-01-30T13:21:36.966Z,11928
2018-01-30T13:22:47.232Z,10952
2018-01-30T13:23:57.502Z,10628
2018-01-30T13:25:07.707Z,10428
2018-01-30T13:26:17.897Z,10156
2018-01-30T13:27:28.155Z,10132
2018-01-30T13:28:38.324Z,10096
2018-01-30T13:29:48.523Z,10304
2018-01-30T13:30:58.734Z,10608
2018-01-30T13:32:08.893Z,10340
2018-01-30T13:33:18.774Z,10404
2018-01-30T13:34:28.883Z,10316
2018-01-30T13:35:39.135Z,10132
2018-01-30T13:36:50.420Z,9856
2018-01-30T13:38:00.560Z,9604
2018-01-30T13:39:10.800Z,9420
2018-01-30T13:40:20.964Z,9332
2018-01-30T13:41:31.127Z,9112
2018-01-30T13:42:41.358Z,9016
2018-01-30T13:43:51.528Z,8900
2018-01-30T13:45:01.680Z,8876
2018-01-30T13:46:11.827Z,8864
2018-01-30T13:47:21.997Z,8936
2018-01-30T13:48:32.169Z,9076
2018-01-30T13:49:42.433Z,8960
2018-01-30T13:50:52.607Z,8796
2018-01-30T13:52:02.757Z,8552
2018-01-30T13:53:12.911Z,8356
2018-01-30T13:54:23.173Z,8056
2018-01-30T13:55:33.508Z,7768
2018-01-30T13:56:43.667Z,7648
2018-01-30T13:57:53.979Z,7388
2018-01-30T13:59:04.126Z,7212
2018-01-30T14:00:14.332Z,7048
2018-01-30T14:01:24.512Z,6964
2018-01-30T14:02:34.716Z,6808
2018-01-30T14:03:44.946Z,6640
2018-01-30T14:04:55.177Z,6312
2018-01-30T14:06:05.369Z,6032
2018-01-30T14:07:15.581Z,5844
2018-01-30T14:08:25.949Z,5740
2018-01-30T14:09:36.115Z,5712
2018-01-30T14:10:46.262Z,5624
2018-01-30T14:11:56.442Z,5660
2018-01-30T14:13:06.648Z,5700
2018-01-30T14:14:16.920Z,5752
2018-01-30T14:15:27.152Z,5880
2018-01-30T14:16:37.437Z,5912
2018-01-30T14:17:47.599Z,5904
2018-01-30T14:18:57.746Z,5980
2018-01-30T14:20:08.027Z,5800
2018-01-30T14:21:18.183Z,5456
2018-01-30T14:22:28.380Z,5392
2018-01-30T14:23:38.739Z,5316
2018-01-30T14:24:48.956Z,5280
2018-01-30T14:25:59.147Z,5476
2018-01-30T14:27:09.549Z,5572
2018-01-30T14:28:19.729Z,5816
2018-01-30T14:29:29.926Z,5804
2018-01-30T14:30:40.128Z,5860
2018-01-30T14:31:50.335Z,5724
2018-01-30T14:33:00.490Z,5628
2018-01-30T14:34:10.688Z,5264
2018-01-30T14:35:20.867Z,4532
2018-01-30T14:36:31.097Z,4140
2018-01-30T14:37:41.253Z,3708
2018-01-30T14:38:51.404Z,3792
2018-01-30T14:40:01.562Z,3888
2018-01-30T14:41:11.733Z,3872
2018-01-30T14:42:21.608Z,3924
2018-01-30T14:43:31.754Z,3952
2018-01-30T14:44:41.973Z,3912
2018-01-30T14:45:52.170Z,3856
2018-01-30T14:47:02.339Z,3952
2018-01-30T14:48:12.522Z,4020
2018-01-30T14:49:22.699Z,4040
2018-01-30T14:50:32.915Z,4080
2018-01-30T14:51:43.102Z,4300
2018-01-30T14:52:53.268Z,4196
2018-01-30T14:54:03.628Z,4032
2018-01-30T14:55:13.831Z,3868
2018-01-30T14:56:23.999Z,3624
2018-01-30T14:57:34.167Z,3588
2018-01-30T14:58:44.436Z,3504
2018-01-30T14:59:54.403Z,3348
2018-01-30T15:01:04.540Z,3276
2018-01-30T15:02:14.702Z,3180
2018-01-30T15:03:24.848Z,3124
2018-01-30T15:04:35.064Z,3124
2018-01-30T15:05:45.265Z,2752
2018-01-30T15:06:55.462Z,2548
2018-01-30T15:08:05.685Z,2364
2018-01-30T15:09:15.861Z,2160
2018-01-30T15:10:26.111Z,2056
2018-01-30T15:11:36.279Z,2000
2018-01-30T15:12:46.499Z,1976
2018-01-30T15:13:56.444Z,1952
2018-01-30T15:15:06.582Z,1884
2018-01-30T15:16:16.751Z,1772
2018-01-30T15:17:27.045Z,1824
2018-01-30T15:18:37.190Z,1792
2018-01-30T15:19:47.439Z,1756
2018-01-30T15:20:58.704Z,1680
2018-01-30T15:22:08.915Z,1608
2018-01-30T15:23:19.044Z,1540
2018-01-30T15:24:29.213Z,1476
2018-01-30T15:25:39.346Z,1428
2018-01-30T15:26:49.573Z,1388
2018-01-30T15:27:59.767Z,1376
2018-01-30T15:29:09.931Z,1404
2018-01-30T15:30:20.127Z,1396
2018-01-30T15:31:30.331Z,1372
2018-01-30T15:32:40.494Z,1336
2018-01-30T15:33:50.651Z,1312
2018-01-30T15:35:00.873Z,1248
2018-01-30T15:36:11.090Z,1132
2018-01-30T15:37:21.293Z,1008
2018-01-30T15:38:31.202Z,904
2018-01-30T15:39:41.386Z,804
2018-01-30T15:40:51.545Z,716
2018-01-30T15:42:01.723Z,640
2018-01-30T15:43:11.990Z,576
2018-01-30T15:44:21.908Z,524
2018-01-30T15:45:32.088Z,480
2018-01-30T15:46:42.249Z,444
2018-01-30T15:47:52.432Z,408
2018-01-30T15:49:02.743Z,380
2018-01-30T15:50:12.895Z,352
2018-01-30T15:51:23.081Z,328
2018-01-30T15:52:33.015Z,304
2018-01-30T15:53:43.331Z,284
2018-01-30T15:54:53.525Z,256
2018-01-30T15:56:03.796Z,232
2018-01-30T15:57:14.022Z,212
2018-01-30T15:58:24.338Z,192
2018-01-30T15:59:34.550Z,172
2018-01-30T16:00:44.778Z,156
2018-01-30T16:01:54.997Z,140
2018-01-30T16:03:05.166Z,128
2018-01-30T16:04:15.409Z,112
2018-01-30T16:05:25.578Z,104
2018-01-30T16:06:35.769Z,92
2018-01-30T16:07:45.971Z,84
2018-01-30T16:08:56.314Z,76
2018-01-30T16:10:06.512Z,68